sensor_id;sensor_type;location;lat;lon;timestamp;P1;durP1;ratioP1;P2;durP2;ratioP2
50225;SDS011;36113;50.742;6.432;2023-11-21T00:02:04;10.63;;;7.75;;
50225;SDS011;36113;50.742;6.432;2023-11-21T00:04:29;11.55;;;8.43;;
50225;SDS011;36113;50.742;6.432;2023-11-21T00:06:55;12.65;;;8.20;;
50225;SDS011;36113;50.742;6.432;2023-11-21T00:09:20;12.43;;;8.00;;
50225;SDS011;36113;50.742;6.432;2023-11-21T00:11:45;11.45;;;7.78;;
50225;SDS011;36113;50.742;6.432;2023-11-21T00:14:11;11.65;;;7.13;;
50225;SDS011;36113;50.742;6.432;2023-11-21T00:16:36;11.68;;;6.75;;
50225;SDS011;36113;50.742;6.432;2023-11-21T00:19:01;11.52;;;7.05;;
50225;SDS011;36113;50.742;6.432;2023-11-21T00:21:27;11.95;;;6.07;;
50225;SDS011;36113;50.742;6.432;2023-11-21T00:23:52;8.10;;;5.97;;
50225;SDS011;36113;50.742;6.432;2023-11-21T00:26:18;8.25;;;5.50;;
50225;SDS011;36113;50.742;6.432;2023-11-21T00:28:43;5.00;;;4.47;;
50225;SDS011;36113;50.742;6.432;2023-11-21T00:31:08;6.07;;;4.57;;
50225;SDS011;36113;50.742;6.432;2023-11-21T00:33:33;6.38;;;4.38;;
50225;SDS011;36113;50.742;6.432;2023-11-21T00:35:59;8.80;;;3.80;;
50225;SDS011;36113;50.742;6.432;2023-11-21T00:38:25;8.97;;;3.57;;
50225;SDS011;36113;50.742;6.432;2023-11-21T00:40:52;8.73;;;3.42;;
50225;SDS011;36113;50.742;6.432;2023-11-21T00:43:20;5.68;;;3.47;;
50225;SDS011;36113;50.742;6.432;2023-11-21T00:45:46;6.32;;;3.10;;
50225;SDS011;36113;50.742;6.432;2023-11-21T00:48:14;3.45;;;3.05;;
50225;SDS011;36113;50.742;6.432;2023-11-21T00:50:39;6.65;;;3.42;;
50225;SDS011;36113;50.742;6.432;2023-11-21T00:53:04;7.38;;;3.20;;
50225;SDS011;36113;50.742;6.432;2023-11-21T00:55:30;4.10;;;3.65;;
50225;SDS011;36113;50.742;6.432;2023-11-21T00:57:55;6.63;;;3.95;;
50225;SDS011;36113;50.742;6.432;2023-11-21T01:00:20;4.95;;;4.47;;
50225;SDS011;36113;50.742;6.432;2023-11-21T01:02:46;4.78;;;4.25;;
50225;SDS011;36113;50.742;6.432;2023-11-21T01:05:12;6.20;;;4.60;;
50225;SDS011;36113;50.742;6.432;2023-11-21T01:07:37;8.27;;;5.97;;
50225;SDS011;36113;50.742;6.432;2023-11-21T01:10:03;6.47;;;5.68;;
50225;SDS011;36113;50.742;6.432;2023-11-21T01:12:32;6.80;;;5.38;;
50225;SDS011;36113;50.742;6.432;2023-11-21T01:14:59;9.60;;;6.68;;
50225;SDS011;36113;50.742;6.432;2023-11-21T01:17:25;12.63;;;7.32;;
50225;SDS011;36113;50.742;6.432;2023-11-21T01:19:51;9.20;;;7.13;;
50225;SDS011;36113;50.742;6.432;2023-11-21T01:22:16;12.68;;;8.55;;
50225;SDS011;36113;50.742;6.432;2023-11-21T01:24:42;11.67;;;8.50;;
50225;SDS011;36113;50.742;6.432;2023-11-21T01:27:08;13.88;;;9.75;;
50225;SDS011;36113;50.742;6.432;2023-11-21T01:29:33;12.85;;;9.30;;
50225;SDS011;36113;50.742;6.432;2023-11-21T01:32:00;12.25;;;8.82;;
50225;SDS011;36113;50.742;6.432;2023-11-21T01:34:27;11.88;;;8.80;;
50225;SDS011;36113;50.742;6.432;2023-11-21T01:36:52;15.43;;;9.60;;
50225;SDS011;36113;50.742;6.432;2023-11-21T01:39:17;13.80;;;9.43;;
50225;SDS011;36113;50.742;6.432;2023-11-21T01:41:48;15.07;;;9.80;;
50225;SDS011;36113;50.742;6.432;2023-11-21T01:44:14;12.32;;;9.55;;
50225;SDS011;36113;50.742;6.432;2023-11-21T01:46:39;14.98;;;10.48;;
50225;SDS011;36113;50.742;6.432;2023-11-21T01:49:06;17.33;;;10.90;;
50225;SDS011;36113;50.742;6.432;2023-11-21T01:51:32;15.48;;;10.45;;
50225;SDS011;36113;50.742;6.432;2023-11-21T01:53:58;15.30;;;10.52;;
50225;SDS011;36113;50.742;6.432;2023-11-21T01:56:24;16.58;;;10.40;;
50225;SDS011;36113;50.742;6.432;2023-11-21T01:58:51;13.23;;;10.02;;
50225;SDS011;36113;50.742;6.432;2023-11-21T02:01:16;14.88;;;10.02;;
50225;SDS011;36113;50.742;6.432;2023-11-21T02:03:44;16.02;;;9.68;;
50225;SDS011;36113;50.742;6.432;2023-11-21T02:06:09;14.52;;;9.20;;
50225;SDS011;36113;50.742;6.432;2023-11-21T02:08:34;11.60;;;8.27;;
50225;SDS011;36113;50.742;6.432;2023-11-21T02:11:02;13.55;;;8.25;;
50225;SDS011;36113;50.742;6.432;2023-11-21T02:13:28;11.25;;;8.77;;
50225;SDS011;36113;50.742;6.432;2023-11-21T02:15:53;12.38;;;8.73;;
50225;SDS011;36113;50.742;6.432;2023-11-21T02:18:19;14.73;;;7.88;;
50225;SDS011;36113;50.742;6.432;2023-11-21T02:20:44;13.13;;;7.30;;
50225;SDS011;36113;50.742;6.432;2023-11-21T02:23:11;15.85;;;8.23;;
50225;SDS011;36113;50.742;6.432;2023-11-21T02:25:37;10.68;;;7.22;;
50225;SDS011;36113;50.742;6.432;2023-11-21T02:28:03;15.07;;;7.68;;
50225;SDS011;36113;50.742;6.432;2023-11-21T02:30:29;11.55;;;6.90;;
50225;SDS011;36113;50.742;6.432;2023-11-21T02:32:56;8.85;;;6.15;;
50225;SDS011;36113;50.742;6.432;2023-11-21T02:35:22;11.80;;;7.40;;
50225;SDS011;36113;50.742;6.432;2023-11-21T02:37:47;12.07;;;6.45;;
50225;SDS011;36113;50.742;6.432;2023-11-21T02:40:13;10.60;;;6.53;;
50225;SDS011;36113;50.742;6.432;2023-11-21T02:42:42;9.95;;;7.10;;
50225;SDS011;36113;50.742;6.432;2023-11-21T02:45:11;11.77;;;7.20;;
50225;SDS011;36113;50.742;6.432;2023-11-21T02:47:39;11.30;;;7.30;;
50225;SDS011;36113;50.742;6.432;2023-11-21T02:50:05;16.33;;;7.75;;
50225;SDS011;36113;50.742;6.432;2023-11-21T02:52:33;10.73;;;7.28;;
50225;SDS011;36113;50.742;6.432;2023-11-21T02:54:58;13.15;;;8.25;;
50225;SDS011;36113;50.742;6.432;2023-11-21T02:57:24;9.93;;;6.93;;
50225;SDS011;36113;50.742;6.432;2023-11-21T02:59:49;13.60;;;8.95;;
50225;SDS011;36113;50.742;6.432;2023-11-21T03:02:15;14.20;;;7.63;;
50225;SDS011;36113;50.742;6.432;2023-11-21T03:04:40;13.18;;;6.80;;
50225;SDS011;36113;50.742;6.432;2023-11-21T03:07:07;13.95;;;6.97;;
50225;SDS011;36113;50.742;6.432;2023-11-21T03:09:33;12.50;;;7.70;;
50225;SDS011;36113;50.742;6.432;2023-11-21T03:11:58;13.80;;;7.18;;
50225;SDS011;36113;50.742;6.432;2023-11-21T03:14:23;11.00;;;7.43;;
50225;SDS011;36113;50.742;6.432;2023-11-21T03:16:49;18.20;;;7.45;;
50225;SDS011;36113;50.742;6.432;2023-11-21T03:19:14;14.23;;;7.65;;
50225;SDS011;36113;50.742;6.432;2023-11-21T03:21:40;14.60;;;8.07;;
50225;SDS011;36113;50.742;6.432;2023-11-21T03:24:05;15.27;;;8.10;;
50225;SDS011;36113;50.742;6.432;2023-11-21T03:26:32;14.73;;;9.20;;
50225;SDS011;36113;50.742;6.432;2023-11-21T03:28:57;13.73;;;8.00;;
50225;SDS011;36113;50.742;6.432;2023-11-21T03:31:22;13.43;;;7.15;;
50225;SDS011;36113;50.742;6.432;2023-11-21T03:33:48;12.55;;;7.70;;
50225;SDS011;36113;50.742;6.432;2023-11-21T03:36:13;13.32;;;6.43;;
50225;SDS011;36113;50.742;6.432;2023-11-21T03:38:40;11.53;;;7.77;;
50225;SDS011;36113;50.742;6.432;2023-11-21T03:41:06;13.95;;;7.55;;
50225;SDS011;36113;50.742;6.432;2023-11-21T03:43:35;11.30;;;7.18;;
50225;SDS011;36113;50.742;6.432;2023-11-21T03:46:00;11.73;;;7.13;;
50225;SDS011;36113;50.742;6.432;2023-11-21T03:48:25;12.20;;;7.68;;
50225;SDS011;36113;50.742;6.432;2023-11-21T03:50:51;14.75;;;7.97;;
50225;SDS011;36113;50.742;6.432;2023-11-21T03:53:16;12.85;;;7.90;;
50225;SDS011;36113;50.742;6.432;2023-11-21T03:55:41;10.30;;;7.57;;
50225;SDS011;36113;50.742;6.432;2023-11-21T03:58:07;14.90;;;8.13;;
50225;SDS011;36113;50.742;6.432;2023-11-21T04:00:32;13.52;;;7.82;;
50225;SDS011;36113;50.742;6.432;2023-11-21T04:02:57;14.73;;;7.53;;
50225;SDS011;36113;50.742;6.432;2023-11-21T04:05:23;13.83;;;7.47;;
50225;SDS011;36113;50.742;6.432;2023-11-21T04:07:49;12.95;;;6.90;;
50225;SDS011;36113;50.742;6.432;2023-11-21T04:10:15;9.82;;;6.40;;
50225;SDS011;36113;50.742;6.432;2023-11-21T04:12:41;14.75;;;6.63;;
50225;SDS011;36113;50.742;6.432;2023-11-21T04:15:07;12.32;;;7.05;;
50225;SDS011;36113;50.742;6.432;2023-11-21T04:17:33;9.68;;;6.65;;
50225;SDS011;36113;50.742;6.432;2023-11-21T04:19:59;14.30;;;7.07;;
50225;SDS011;36113;50.742;6.432;2023-11-21T04:22:25;10.15;;;6.43;;
50225;SDS011;36113;50.742;6.432;2023-11-21T04:24:50;9.65;;;6.93;;
50225;SDS011;36113;50.742;6.432;2023-11-21T04:27:15;17.17;;;9.52;;
50225;SDS011;36113;50.742;6.432;2023-11-21T04:29:43;12.80;;;8.52;;
50225;SDS011;36113;50.742;6.432;2023-11-21T04:32:09;10.63;;;7.40;;
50225;SDS011;36113;50.742;6.432;2023-11-21T04:34:34;13.13;;;8.10;;
50225;SDS011;36113;50.742;6.432;2023-11-21T04:36:59;13.07;;;8.20;;
50225;SDS011;36113;50.742;6.432;2023-11-21T04:39:25;14.10;;;8.88;;
50225;SDS011;36113;50.742;6.432;2023-11-21T04:41:51;9.60;;;7.57;;
50225;SDS011;36113;50.742;6.432;2023-11-21T04:44:16;15.75;;;8.20;;
50225;SDS011;36113;50.742;6.432;2023-11-21T04:46:42;11.68;;;8.07;;
50225;SDS011;36113;50.742;6.432;2023-11-21T04:49:07;12.98;;;7.85;;
50225;SDS011;36113;50.742;6.432;2023-11-21T04:51:32;17.58;;;8.50;;
50225;SDS011;36113;50.742;6.432;2023-11-21T04:53:58;11.65;;;7.43;;
50225;SDS011;36113;50.742;6.432;2023-11-21T04:56:23;11.80;;;8.23;;
50225;SDS011;36113;50.742;6.432;2023-11-21T04:58:49;15.63;;;8.10;;
50225;SDS011;36113;50.742;6.432;2023-11-21T05:01:15;11.60;;;7.47;;
50225;SDS011;36113;50.742;6.432;2023-11-21T05:03:40;15.15;;;7.95;;
50225;SDS011;36113;50.742;6.432;2023-11-21T05:06:06;15.43;;;7.77;;
50225;SDS011;36113;50.742;6.432;2023-11-21T05:08:34;11.15;;;7.88;;
50225;SDS011;36113;50.742;6.432;2023-11-21T05:11:02;10.63;;;8.07;;
50225;SDS011;36113;50.742;6.432;2023-11-21T05:13:27;11.52;;;7.70;;
50225;SDS011;36113;50.742;6.432;2023-11-21T05:15:54;11.30;;;7.28;;
50225;SDS011;36113;50.742;6.432;2023-11-21T05:18:20;18.33;;;7.30;;
50225;SDS011;36113;50.742;6.432;2023-11-21T05:20:46;12.52;;;6.82;;
50225;SDS011;36113;50.742;6.432;2023-11-21T05:23:12;11.30;;;7.10;;
50225;SDS011;36113;50.742;6.432;2023-11-21T05:25:37;12.90;;;7.63;;
50225;SDS011;36113;50.742;6.432;2023-11-21T05:28:03;14.82;;;8.23;;
50225;SDS011;36113;50.742;6.432;2023-11-21T05:30:29;17.48;;;9.57;;
50225;SDS011;36113;50.742;6.432;2023-11-21T05:32:54;15.20;;;8.68;;
50225;SDS011;36113;50.742;6.432;2023-11-21T05:35:19;15.50;;;8.48;;
50225;SDS011;36113;50.742;6.432;2023-11-21T05:37:46;13.25;;;9.05;;
50225;SDS011;36113;50.742;6.432;2023-11-21T05:40:11;13.18;;;8.93;;
50225;SDS011;36113;50.742;6.432;2023-11-21T05:42:38;10.73;;;7.57;;
50225;SDS011;36113;50.742;6.432;2023-11-21T05:45:04;10.70;;;6.88;;
50225;SDS011;36113;50.742;6.432;2023-11-21T05:47:39;10.65;;;7.20;;
50225;SDS011;36113;50.742;6.432;2023-11-21T05:50:07;13.98;;;7.68;;
50225;SDS011;36113;50.742;6.432;2023-11-21T05:52:37;18.45;;;8.32;;
50225;SDS011;36113;50.742;6.432;2023-11-21T05:55:03;12.15;;;6.63;;
50225;SDS011;36113;50.742;6.432;2023-11-21T05:57:32;12.35;;;7.63;;
50225;SDS011;36113;50.742;6.432;2023-11-21T06:00:23;12.10;;;6.90;;
50225;SDS011;36113;50.742;6.432;2023-11-21T06:02:47;9.82;;;6.43;;
50225;SDS011;36113;50.742;6.432;2023-11-21T06:05:15;10.52;;;6.88;;
50225;SDS011;36113;50.742;6.432;2023-11-21T06:07:42;11.23;;;6.68;;
50225;SDS011;36113;50.742;6.432;2023-11-21T06:10:10;9.82;;;5.90;;
50225;SDS011;36113;50.742;6.432;2023-11-21T06:12:40;10.45;;;6.43;;
50225;SDS011;36113;50.742;6.432;2023-11-21T06:15:07;12.02;;;6.70;;
50225;SDS011;36113;50.742;6.432;2023-11-21T06:17:34;12.73;;;7.10;;
50225;SDS011;36113;50.742;6.432;2023-11-21T06:20:04;13.02;;;7.85;;
50225;SDS011;36113;50.742;6.432;2023-11-21T06:22:37;14.55;;;8.18;;
50225;SDS011;36113;50.742;6.432;2023-11-21T06:25:04;12.20;;;7.05;;
50225;SDS011;36113;50.742;6.432;2023-11-21T06:27:31;13.20;;;7.55;;
50225;SDS011;36113;50.742;6.432;2023-11-21T06:32:23;14.00;;;8.27;;
50225;SDS011;36113;50.742;6.432;2023-11-21T06:34:48;12.50;;;8.30;;
50225;SDS011;36113;50.742;6.432;2023-11-21T06:37:14;13.85;;;9.07;;
50225;SDS011;36113;50.742;6.432;2023-11-21T06:39:40;13.32;;;9.05;;
50225;SDS011;36113;50.742;6.432;2023-11-21T06:42:05;16.33;;;9.68;;
50225;SDS011;36113;50.742;6.432;2023-11-21T06:44:30;18.17;;;10.23;;
50225;SDS011;36113;50.742;6.432;2023-11-21T06:46:56;15.07;;;9.70;;
50225;SDS011;36113;50.742;6.432;2023-11-21T06:49:21;18.20;;;10.57;;
50225;SDS011;36113;50.742;6.432;2023-11-21T06:51:48;18.88;;;10.88;;
50225;SDS011;36113;50.742;6.432;2023-11-21T06:54:13;23.23;;;12.18;;
50225;SDS011;36113;50.742;6.432;2023-11-21T06:56:39;22.05;;;11.63;;
50225;SDS011;36113;50.742;6.432;2023-11-21T06:59:05;22.02;;;11.57;;
50225;SDS011;36113;50.742;6.432;2023-11-21T07:01:30;23.08;;;12.38;;
50225;SDS011;36113;50.742;6.432;2023-11-21T07:03:59;24.67;;;12.90;;
50225;SDS011;36113;50.742;6.432;2023-11-21T07:06:24;19.50;;;12.00;;
50225;SDS011;36113;50.742;6.432;2023-11-21T07:08:49;25.25;;;12.93;;
50225;SDS011;36113;50.742;6.432;2023-11-21T07:11:14;23.58;;;12.13;;
50225;SDS011;36113;50.742;6.432;2023-11-21T07:13:40;24.27;;;13.25;;
50225;SDS011;36113;50.742;6.432;2023-11-21T07:16:05;22.63;;;13.63;;
50225;SDS011;36113;50.742;6.432;2023-11-21T07:18:31;22.40;;;12.77;;
50225;SDS011;36113;50.742;6.432;2023-11-21T07:20:56;25.58;;;12.05;;
50225;SDS011;36113;50.742;6.432;2023-11-21T07:23:23;24.05;;;12.90;;
50225;SDS011;36113;50.742;6.432;2023-11-21T07:25:49;23.77;;;13.00;;
50225;SDS011;36113;50.742;6.432;2023-11-21T07:28:14;29.67;;;15.00;;
50225;SDS011;36113;50.742;6.432;2023-11-21T07:30:43;26.73;;;15.23;;
50225;SDS011;36113;50.742;6.432;2023-11-21T07:33:08;27.33;;;16.42;;
50225;SDS011;36113;50.742;6.432;2023-11-21T07:35:33;29.00;;;17.05;;
50225;SDS011;36113;50.742;6.432;2023-11-21T07:37:59;26.77;;;16.73;;
50225;SDS011;36113;50.742;6.432;2023-11-21T07:40:24;29.02;;;15.43;;
50225;SDS011;36113;50.742;6.432;2023-11-21T07:42:49;25.00;;;14.75;;
50225;SDS011;36113;50.742;6.432;2023-11-21T07:45:15;27.00;;;14.02;;
50225;SDS011;36113;50.742;6.432;2023-11-21T07:47:41;24.90;;;14.55;;
50225;SDS011;36113;50.742;6.432;2023-11-21T07:50:07;24.27;;;15.05;;
50225;SDS011;36113;50.742;6.432;2023-11-21T07:52:33;20.13;;;13.57;;
50225;SDS011;36113;50.742;6.432;2023-11-21T07:54:58;28.45;;;13.45;;
50225;SDS011;36113;50.742;6.432;2023-11-21T07:57:24;25.25;;;13.75;;
50225;SDS011;36113;50.742;6.432;2023-11-21T07:59:49;25.08;;;12.82;;
50225;SDS011;36113;50.742;6.432;2023-11-21T08:02:14;26.77;;;14.30;;
50225;SDS011;36113;50.742;6.432;2023-11-21T08:04:41;27.52;;;14.10;;
50225;SDS011;36113;50.742;6.432;2023-11-21T08:07:07;20.83;;;12.18;;
50225;SDS011;36113;50.742;6.432;2023-11-21T08:09:32;22.67;;;12.85;;
50225;SDS011;36113;50.742;6.432;2023-11-21T08:14:25;22.02;;;12.43;;
50225;SDS011;36113;50.742;6.432;2023-11-21T08:16:51;24.63;;;13.20;;
50225;SDS011;36113;50.742;6.432;2023-11-21T08:19:17;30.65;;;13.80;;
50225;SDS011;36113;50.742;6.432;2023-11-21T08:21:43;22.15;;;12.15;;
50225;SDS011;36113;50.742;6.432;2023-11-21T08:24:08;27.75;;;13.93;;
50225;SDS011;36113;50.742;6.432;2023-11-21T08:26:36;22.67;;;13.50;;
50225;SDS011;36113;50.742;6.432;2023-11-21T08:29:03;26.30;;;14.20;;
50225;SDS011;36113;50.742;6.432;2023-11-21T08:31:31;26.63;;;14.50;;
50225;SDS011;36113;50.742;6.432;2023-11-21T08:33:57;27.98;;;14.55;;
50225;SDS011;36113;50.742;6.432;2023-11-21T08:36:22;27.25;;;14.15;;
50225;SDS011;36113;50.742;6.432;2023-11-21T08:38:49;30.70;;;16.35;;
50225;SDS011;36113;50.742;6.432;2023-11-21T08:41:17;33.45;;;15.35;;
50225;SDS011;36113;50.742;6.432;2023-11-21T08:43:42;28.95;;;14.77;;
50225;SDS011;36113;50.742;6.432;2023-11-21T08:46:08;31.17;;;15.80;;
50225;SDS011;36113;50.742;6.432;2023-11-21T08:48:36;30.10;;;14.68;;
50225;SDS011;36113;50.742;6.432;2023-11-21T08:51:02;24.70;;;14.15;;
50225;SDS011;36113;50.742;6.432;2023-11-21T08:53:29;27.48;;;14.70;;
50225;SDS011;36113;50.742;6.432;2023-11-21T08:55:55;24.42;;;14.00;;
50225;SDS011;36113;50.742;6.432;2023-11-21T08:58:21;30.77;;;13.88;;
50225;SDS011;36113;50.742;6.432;2023-11-21T09:00:46;29.73;;;14.77;;
50225;SDS011;36113;50.742;6.432;2023-11-21T09:03:12;29.00;;;15.02;;
50225;SDS011;36113;50.742;6.432;2023-11-21T09:05:38;27.27;;;13.95;;
50225;SDS011;36113;50.742;6.432;2023-11-21T09:08:04;23.42;;;12.52;;
50225;SDS011;36113;50.742;6.432;2023-11-21T09:10:29;30.33;;;13.52;;
50225;SDS011;36113;50.742;6.432;2023-11-21T09:12:55;30.42;;;14.98;;
50225;SDS011;36113;50.742;6.432;2023-11-21T09:15:20;27.90;;;14.40;;
50225;SDS011;36113;50.742;6.432;2023-11-21T09:17:45;30.40;;;15.10;;
50225;SDS011;36113;50.742;6.432;2023-11-21T09:20:11;30.88;;;14.82;;
50225;SDS011;36113;50.742;6.432;2023-11-21T09:22:36;29.73;;;14.07;;
50225;SDS011;36113;50.742;6.432;2023-11-21T09:25:02;26.40;;;14.05;;
50225;SDS011;36113;50.742;6.432;2023-11-21T09:27:30;25.40;;;13.38;;
50225;SDS011;36113;50.742;6.432;2023-11-21T09:29:56;23.45;;;11.82;;
50225;SDS011;36113;50.742;6.432;2023-11-21T09:34:48;31.85;;;14.07;;
50225;SDS011;36113;50.742;6.432;2023-11-21T09:37:15;34.28;;;15.10;;
50225;SDS011;36113;50.742;6.432;2023-11-21T09:39:40;29.40;;;15.30;;
50225;SDS011;36113;50.742;6.432;2023-11-21T09:42:12;29.23;;;12.55;;
50225;SDS011;36113;50.742;6.432;2023-11-21T09:47:30;26.23;;;12.63;;
50225;SDS011;36113;50.742;6.432;2023-11-21T09:49:58;26.15;;;12.82;;
50225;SDS011;36113;50.742;6.432;2023-11-21T09:52:27;27.80;;;13.60;;
50225;SDS011;36113;50.742;6.432;2023-11-21T09:54:53;28.80;;;13.27;;
50225;SDS011;36113;50.742;6.432;2023-11-21T09:57:20;32.47;;;14.45;;
50225;SDS011;36113;50.742;6.432;2023-11-21T09:59:52;26.85;;;14.18;;
50225;SDS011;36113;50.742;6.432;2023-11-21T10:02:22;29.38;;;14.90;;
50225;SDS011;36113;50.742;6.432;2023-11-21T10:04:51;28.15;;;14.10;;
50225;SDS011;36113;50.742;6.432;2023-11-21T10:07:17;30.27;;;13.88;;
50225;SDS011;36113;50.742;6.432;2023-11-21T10:09:45;33.33;;;14.38;;
50225;SDS011;36113;50.742;6.432;2023-11-21T10:12:11;28.23;;;13.57;;
50225;SDS011;36113;50.742;6.432;2023-11-21T10:14:37;34.80;;;14.77;;
50225;SDS011;36113;50.742;6.432;2023-11-21T10:17:06;27.42;;;13.40;;
50225;SDS011;36113;50.742;6.432;2023-11-21T10:19:33;24.80;;;13.60;;
50225;SDS011;36113;50.742;6.432;2023-11-21T10:22:01;30.23;;;13.88;;
50225;SDS011;36113;50.742;6.432;2023-11-21T10:24:28;27.30;;;13.32;;
50225;SDS011;36113;50.742;6.432;2023-11-21T10:26:54;30.27;;;13.50;;
50225;SDS011;36113;50.742;6.432;2023-11-21T10:29:19;24.58;;;11.70;;
50225;SDS011;36113;50.742;6.432;2023-11-21T10:34:18;24.00;;;13.00;;
50225;SDS011;36113;50.742;6.432;2023-11-21T10:36:45;32.08;;;13.13;;
50225;SDS011;36113;50.742;6.432;2023-11-21T10:39:14;28.52;;;12.02;;
50225;SDS011;36113;50.742;6.432;2023-11-21T10:41:43;25.58;;;11.23;;
50225;SDS011;36113;50.742;6.432;2023-11-21T10:44:14;20.02;;;10.60;;
50225;SDS011;36113;50.742;6.432;2023-11-21T10:46:49;26.63;;;11.70;;
50225;SDS011;36113;50.742;6.432;2023-11-21T10:49:22;24.17;;;10.93;;
50225;SDS011;36113;50.742;6.432;2023-11-21T10:51:49;22.15;;;10.38;;
50225;SDS011;36113;50.742;6.432;2023-11-21T10:54:18;20.45;;;9.73;;
50225;SDS011;36113;50.742;6.432;2023-11-21T10:56:45;22.65;;;11.05;;
50225;SDS011;36113;50.742;6.432;2023-11-21T10:59:15;19.75;;;9.20;;
50225;SDS011;36113;50.742;6.432;2023-11-21T11:01:44;21.38;;;8.57;;
50225;SDS011;36113;50.742;6.432;2023-11-21T11:04:11;16.23;;;7.53;;
50225;SDS011;36113;50.742;6.432;2023-11-21T11:06:44;19.88;;;8.20;;
50225;SDS011;36113;50.742;6.432;2023-11-21T11:09:16;18.05;;;8.52;;
50225;SDS011;36113;50.742;6.432;2023-11-21T11:11:42;24.07;;;8.17;;
50225;SDS011;36113;50.742;6.432;2023-11-21T11:14:11;22.77;;;8.70;;
50225;SDS011;36113;50.742;6.432;2023-11-21T11:16:40;20.63;;;7.80;;
50225;SDS011;36113;50.742;6.432;2023-11-21T11:19:08;12.52;;;5.90;;
50225;SDS011;36113;50.742;6.432;2023-11-21T11:22:08;17.00;;;6.50;;
50225;SDS011;36113;50.742;6.432;2023-11-21T11:24:50;16.10;;;5.93;;
50225;SDS011;36113;50.742;6.432;2023-11-21T11:35:42;15.07;;;6.13;;
50225;SDS011;36113;50.742;6.432;2023-11-21T11:38:15;18.63;;;7.45;;
50225;SDS011;36113;50.742;6.432;2023-11-21T11:40:40;17.33;;;7.43;;
50225;SDS011;36113;50.742;6.432;2023-11-21T11:43:07;19.58;;;9.15;;
50225;SDS011;36113;50.742;6.432;2023-11-21T11:45:33;20.45;;;8.82;;
50225;SDS011;36113;50.742;6.432;2023-11-21T11:48:00;10.93;;;6.95;;
50225;SDS011;36113;50.742;6.432;2023-11-21T11:50:28;19.73;;;7.70;;
50225;SDS011;36113;50.742;6.432;2023-11-21T11:52:54;16.88;;;7.55;;
50225;SDS011;36113;50.742;6.432;2023-11-21T11:55:22;14.82;;;6.90;;
50225;SDS011;36113;50.742;6.432;2023-11-21T11:57:49;19.02;;;7.53;;
50225;SDS011;36113;50.742;6.432;2023-11-21T12:00:17;15.25;;;7.38;;
50225;SDS011;36113;50.742;6.432;2023-11-21T12:02:53;17.38;;;7.40;;
50225;SDS011;36113;50.742;6.432;2023-11-21T12:05:20;16.00;;;7.05;;
50225;SDS011;36113;50.742;6.432;2023-11-21T12:07:51;20.33;;;8.43;;
50225;SDS011;36113;50.742;6.432;2023-11-21T12:10:19;20.67;;;7.40;;
50225;SDS011;36113;50.742;6.432;2023-11-21T12:12:50;14.75;;;7.97;;
50225;SDS011;36113;50.742;6.432;2023-11-21T12:15:17;17.67;;;8.25;;
50225;SDS011;36113;50.742;6.432;2023-11-21T12:17:44;17.45;;;8.35;;
50225;SDS011;36113;50.742;6.432;2023-11-21T12:20:10;17.00;;;8.67;;
50225;SDS011;36113;50.742;6.432;2023-11-21T12:22:43;16.67;;;8.15;;
50225;SDS011;36113;50.742;6.432;2023-11-21T12:25:09;13.65;;;6.88;;
50225;SDS011;36113;50.742;6.432;2023-11-21T12:27:35;16.15;;;6.97;;
50225;SDS011;36113;50.742;6.432;2023-11-21T12:30:00;16.67;;;7.65;;
50225;SDS011;36113;50.742;6.432;2023-11-21T12:32:26;25.45;;;10.35;;
50225;SDS011;36113;50.742;6.432;2023-11-21T12:34:51;24.05;;;11.32;;
50225;SDS011;36113;50.742;6.432;2023-11-21T12:37:17;23.55;;;12.15;;
50225;SDS011;36113;50.742;6.432;2023-11-21T12:39:43;27.07;;;11.60;;
50225;SDS011;36113;50.742;6.432;2023-11-21T12:42:08;22.83;;;12.38;;
50225;SDS011;36113;50.742;6.432;2023-11-21T12:44:35;27.70;;;12.32;;
50225;SDS011;36113;50.742;6.432;2023-11-21T12:47:01;29.55;;;11.80;;
50225;SDS011;36113;50.742;6.432;2023-11-21T12:49:26;23.35;;;10.82;;
50225;SDS011;36113;50.742;6.432;2023-11-21T12:51:53;22.70;;;9.68;;
50225;SDS011;36113;50.742;6.432;2023-11-21T12:54:19;25.03;;;9.90;;
50225;SDS011;36113;50.742;6.432;2023-11-21T12:56:45;24.85;;;9.95;;
50225;SDS011;36113;50.742;6.432;2023-11-21T12:59:12;23.13;;;10.27;;
50225;SDS011;36113;50.742;6.432;2023-11-21T13:01:44;27.38;;;10.25;;
50225;SDS011;36113;50.742;6.432;2023-11-21T13:04:10;23.55;;;9.88;;
50225;SDS011;36113;50.742;6.432;2023-11-21T13:06:36;17.48;;;9.30;;
50225;SDS011;36113;50.742;6.432;2023-11-21T13:09:06;25.00;;;10.63;;
50225;SDS011;36113;50.742;6.432;2023-11-21T13:11:35;25.15;;;9.73;;
50225;SDS011;36113;50.742;6.432;2023-11-21T13:14:01;18.27;;;9.80;;
50225;SDS011;36113;50.742;6.432;2023-11-21T13:16:28;23.27;;;8.98;;
50225;SDS011;36113;50.742;6.432;2023-11-21T13:18:54;18.00;;;8.52;;
50225;SDS011;36113;50.742;6.432;2023-11-21T13:21:19;26.15;;;9.43;;
50225;SDS011;36113;50.742;6.432;2023-11-21T13:23:44;17.02;;;7.63;;
50225;SDS011;36113;50.742;6.432;2023-11-21T13:26:11;16.65;;;7.63;;
50225;SDS011;36113;50.742;6.432;2023-11-21T13:28:37;20.88;;;8.38;;
50225;SDS011;36113;50.742;6.432;2023-11-21T13:31:03;20.42;;;8.63;;
50225;SDS011;36113;50.742;6.432;2023-11-21T13:33:45;19.70;;;9.75;;
50225;SDS011;36113;50.742;6.432;2023-11-21T13:36:16;17.00;;;8.63;;
50225;SDS011;36113;50.742;6.432;2023-11-21T13:38:47;17.65;;;8.48;;
50225;SDS011;36113;50.742;6.432;2023-11-21T13:41:13;20.08;;;8.02;;
50225;SDS011;36113;50.742;6.432;2023-11-21T13:43:39;29.17;;;9.57;;
50225;SDS011;36113;50.742;6.432;2023-11-21T13:46:04;22.33;;;9.02;;
50225;SDS011;36113;50.742;6.432;2023-11-21T13:48:38;30.17;;;10.30;;
50225;SDS011;36113;50.742;6.432;2023-11-21T13:51:08;21.98;;;10.18;;
50225;SDS011;36113;50.742;6.432;2023-11-21T13:53:38;22.95;;;10.73;;
50225;SDS011;36113;50.742;6.432;2023-11-21T13:56:04;22.83;;;9.88;;
50225;SDS011;36113;50.742;6.432;2023-11-21T13:58:30;32.20;;;11.38;;
50225;SDS011;36113;50.742;6.432;2023-11-21T14:01:11;26.75;;;10.20;;
50225;SDS011;36113;50.742;6.432;2023-11-21T14:03:49;26.00;;;10.80;;
50225;SDS011;36113;50.742;6.432;2023-11-21T14:06:21;23.58;;;11.10;;
50225;SDS011;36113;50.742;6.432;2023-11-21T14:08:52;25.42;;;11.50;;
50225;SDS011;36113;50.742;6.432;2023-11-21T14:11:21;37.80;;;12.82;;
50225;SDS011;36113;50.742;6.432;2023-11-21T14:13:47;29.25;;;13.45;;
50225;SDS011;36113;50.742;6.432;2023-11-21T14:16:13;29.38;;;12.55;;
50225;SDS011;36113;50.742;6.432;2023-11-21T14:18:39;28.02;;;14.20;;
50225;SDS011;36113;50.742;6.432;2023-11-21T14:23:42;27.60;;;13.38;;
50225;SDS011;36113;50.742;6.432;2023-11-21T14:26:08;33.47;;;12.63;;
50225;SDS011;36113;50.742;6.432;2023-11-21T14:28:33;29.48;;;13.98;;
50225;SDS011;36113;50.742;6.432;2023-11-21T14:31:00;30.17;;;13.10;;
50225;SDS011;36113;50.742;6.432;2023-11-21T14:33:25;30.63;;;12.98;;
50225;SDS011;36113;50.742;6.432;2023-11-21T14:35:51;34.47;;;13.20;;
50225;SDS011;36113;50.742;6.432;2023-11-21T14:38:16;25.73;;;12.02;;
50225;SDS011;36113;50.742;6.432;2023-11-21T14:40:43;30.20;;;14.20;;
50225;SDS011;36113;50.742;6.432;2023-11-21T14:43:08;30.50;;;13.52;;
50225;SDS011;36113;50.742;6.432;2023-11-21T14:45:33;31.98;;;13.02;;
50225;SDS011;36113;50.742;6.432;2023-11-21T14:47:59;27.10;;;12.15;;
50225;SDS011;36113;50.742;6.432;2023-11-21T14:50:31;27.23;;;13.57;;
50225;SDS011;36113;50.742;6.432;2023-11-21T14:53:03;25.15;;;13.13;;